Terminal Aerodrome Forecast
Issued by NWS

Home | Current Version | Previous Version | Graphics & Text | Print | Product List | Glossary On
Versions: 1 2 3 4 5 6 7 8 9 10 11 12 13 14 15 16 17 18 19 20 21 22 23
000
FTUS43 KGRB 251727
TAFRHI
TAF
KRHI 251727Z 2518/2618 26009G16KT P6SM FEW050 SCT200
     FM260300 28006KT P6SM SCT025 BKN200
     FM260700 28007KT 6SM BR FEW015 BKN025
     FM261200 27006KT P6SM VCSH SCT015 BKN025=

USA.gov is the U.S. government's official web portal to all federal, state and local government web resources and services.